Time;durP1;ratioP1;P1;durP2;ratioP2;P2;SDS_P1;SDS_P2;PMS_P1;PMS_P2;Temp;Humidity;BMP_temperature;BMP_pressure;BME280_temperature;BME280_humidity;BME280_pressure;Samples;Min_cycle;Max_cycle;Signal;HPM_P1;HPM_P2
2022/03/31 00:01:17;;;;;;;30.90;19.30;;;;;;;6.32;74.21;97645.04;104871;1274;62212;-26
2022/03/31 00:03:47;;;;;;;35.20;22.40;;;;;;;6.09;74.66;97629.91;104672;1274;75482;-26
2022/03/31 00:06:16;;;;;;;34.60;20.50;;;;;;;5.78;75.88;97617.38;104809;1274;75956;-26
2022/03/31 00:08:45;;;;;;;29.50;17.90;;;;;;;5.48;76.89;97602.25;104741;1274;74302;-26
2022/03/31 00:11:17;;;;;;;34.70;19.70;;;;;;;5.22;78.19;97594.28;104799;1274;61171;-25
2022/03/31 00:13:48;;;;;;;24.00;13.90;;;;;;;5.08;78.37;97598.88;104724;1274;62040;-26
2022/03/31 00:16:18;;;;;;;31.90;17.60;;;;;;;5.58;77.80;97605.58;104850;1274;75495;-26
2022/03/31 00:18:47;;;;;;;39.40;20.10;;;;;;;5.99;76.84;97625.10;104833;1274;76005;-26
2022/03/31 00:21:17;;;;;;;32.90;16.80;;;;;;;5.97;76.67;97640.21;104845;1274;72505;-26
2022/03/31 00:23:46;;;;;;;38.40;20.40;;;;;;;5.79;76.64;97649.84;104792;1273;61130;-26
2022/03/31 00:26:16;;;;;;;34.60;19.40;;;;;;;5.45;77.83;97651.77;104699;1274;62027;-26
2022/03/31 00:28:46;;;;;;;37.90;21.30;;;;;;;5.15;78.72;97659.83;104759;1274;75489;-26
2022/03/31 00:31:15;;;;;;;28.40;13.70;;;;;;;5.05;79.17;97653.77;104823;1274;76362;-26
2022/03/31 00:33:45;;;;;;;31.10;16.70;;;;;;;5.58;79.37;97651.32;104834;1273;73378;-26
2022/03/31 00:36:14;;;;;;;44.00;22.70;;;;;;;6.13;77.22;97643.54;104809;1274;61074;-26
2022/03/31 00:39:28;;;;;;;32.70;18.10;;;;;;;6.19;77.10;97632.17;104805;1274;61138;-25
2022/03/31 00:41:37;;;;;;;37.80;19.80;;;;;;;6.09;76.77;97625.82;104978;1274;75529;-25
2022/03/31 00:44:06;;;;;;;41.30;23.10;;;;;;;5.87;77.28;97609.71;105088;1274;74766;-25
2022/03/31 00:46:52;;;;;;;35.90;18.90;;;;;;;5.61;77.82;97604.11;104649;1274;74362;-26
2022/03/31 00:49:22;;;;;;;29.00;16.80;;;;;;;5.40;77.23;97598.30;104359;1274;406493;-26
2022/03/31 00:51:53;;;;;;;27.30;14.10;;;;;;;5.22;78.01;97595.80;104709;1274;61126;-26
2022/03/31 00:54:23;;;;;;;32.10;15.80;;;;;;;5.76;78.36;97598.94;104742;1272;74449;-26
2022/03/31 00:56:53;;;;;;;32.20;17.20;;;;;;;6.38;76.70;97597.96;104644;1274;75978;-26
2022/03/31 00:59:22;;;;;;;35.50;17.50;;;;;;;6.50;75.76;97594.38;104682;1274;74465;-26
2022/03/31 01:01:51;;;;;;;32.30;18.50;;;;;;;6.35;75.83;97586.31;104892;1274;62404;-26
2022/03/31 01:04:21;;;;;;;31.00;18.30;;;;;;;6.17;75.83;97584.13;104987;1274;61025;-26
2022/03/31 01:06:52;;;;;;;31.80;18.30;;;;;;;5.92;75.87;97580.56;104818;1274;75650;-26
2022/03/31 01:09:22;;;;;;;31.30;17.60;;;;;;;5.69;76.48;97582.09;104737;1274;76279;-26
2022/03/31 01:11:52;;;;;;;33.50;16.00;;;;;;;5.54;77.16;97579.05;104826;1274;74724;-26
2022/03/31 01:14:21;;;;;;;31.40;16.20;;;;;;;6.02;77.76;97579.84;104606;1274;61872;-26
2022/03/31 01:16:51;;;;;;;37.90;18.00;;;;;;;6.64;76.19;97588.10;104802;1273;61153;-26
2022/03/31 01:19:21;;;;;;;35.60;17.40;;;;;;;6.76;75.32;97584.83;104736;1274;75525;-25
2022/03/31 01:21:50;;;;;;;35.10;20.20;;;;;;;6.56;74.96;97589.16;104713;1274;75857;-26
2022/03/31 01:24:20;;;;;;;42.20;23.10;;;;;;;6.29;75.29;97580.48;104721;1274;74059;-26
2022/03/31 01:26:49;;;;;;;43.90;21.60;;;;;;;5.99;76.18;97576.81;104851;1272;61083;-28
2022/03/31 01:29:21;;;;;;;36.30;20.00;;;;;;;5.74;76.70;97567.25;104827;1274;61029;-26
2022/03/31 01:31:50;;;;;;;22.50;10.60;;;;;;;5.53;77.15;97564.97;104786;1274;75407;-26
2022/03/31 01:34:20;;;;;;;29.10;14.70;;;;;;;5.99;77.02;97562.00;104824;1273;76128;-25
2022/03/31 01:36:49;;;;;;;29.80;15.20;;;;;;;6.52;75.74;97555.23;104815;1274;74434;-27
2022/03/31 01:39:18;;;;;;;32.00;17.70;;;;;;;6.51;75.39;97548.54;104892;1274;61840;-26
2022/03/31 01:41:48;;;;;;;36.10;18.90;;;;;;;6.27;75.77;97544.61;104774;1274;61138;-26
2022/03/31 01:44:17;;;;;;;31.40;17.30;;;;;;;5.97;76.78;97541.88;104877;1272;75766;-25
2022/03/31 01:46:48;;;;;;;33.30;19.20;;;;;;;5.70;77.74;97533.63;104838;1274;74047;-25
2022/03/31 01:49:18;;;;;;;23.90;12.10;;;;;;;5.48;78.42;97525.31;104719;1273;73135;-26
2022/03/31 01:51:47;;;;;;;27.20;14.90;;;;;;;5.87;79.13;97521.72;104867;1274;61137;-27
2022/03/31 01:54:17;;;;;;;25.30;13.10;;;;;;;6.39;77.31;97514.45;104759;1273;61195;-26
2022/03/31 01:56:48;;;;;;;27.80;14.20;;;;;;;6.44;76.82;97506.13;104665;1274;75608;-26
2022/03/31 01:59:17;;;;;;;24.20;14.80;;;;;;;6.21;77.51;97500.20;104807;1271;75008;-25
2022/03/31 02:01:48;;;;;;;29.30;17.20;;;;;;;5.95;78.07;97495.55;104829;1271;74723;-26
2022/03/31 02:04:17;;;;;;;23.70;12.80;;;;;;;5.68;79.22;97490.63;104748;1271;62053;-26
2022/03/31 02:06:46;;;;;;;19.60;10.10;;;;;;;5.47;80.26;97484.13;104820;1271;61053;-27
2022/03/31 02:09:15;;;;;;;25.80;13.90;;;;;;;5.85;80.60;97480.03;104754;1273;74275;-28
2022/03/31 02:11:48;;;;;;;26.70;16.20;;;;;;;6.34;79.17;97474.39;104796;1274;76382;-26
2022/03/31 02:16:11;;;;;;;25.90;15.70;;;;;;;6.28;78.85;97468.89;101934;1307;601463;-25
2022/03/31 02:18:41;;;;;;;20.40;11.70;;;;;;;6.07;78.97;97469.68;104491;1284;61161;-25
2022/03/31 02:21:11;;;;;;;26.40;15.50;;;;;;;5.85;79.38;97477.06;104489;1284;61019;-25
2022/03/31 02:23:40;;;;;;;23.50;13.60;;;;;;;5.68;79.97;97476.44;104406;1284;73942;-27
2022/03/31 02:26:11;;;;;;;17.60;10.30;;;;;;;6.04;80.20;97482.57;104426;1284;76074;-27
2022/03/31 02:28:40;;;;;;;21.10;13.40;;;;;;;6.32;78.90;97487.52;104053;1283;619549;-27
2022/03/31 02:31:09;;;;;;;28.70;16.70;;;;;;;6.27;78.96;97486.59;104322;1281;61245;-27
2022/03/31 02:33:58;;;;;;;24.30;13.20;;;;;;;6.07;79.32;97485.54;104342;1281;62389;-27
2022/03/31 02:36:48;;;;;;;16.40;10.30;;;;;;;5.81;80.37;97485.55;104227;1281;74989;-27
2022/03/31 02:39:17;;;;;;;16.60;8.40;;;;;;;5.70;81.57;97483.38;104281;1281;75439;-28
2022/03/31 02:41:46;;;;;;;17.30;10.90;;;;;;;6.29;80.52;97478.80;104288;1280;73064;-29
2022/03/31 02:44:16;;;;;;;13.30;9.20;;;;;;;6.64;78.86;97479.42;104294;1281;61250;-27
2022/03/31 02:46:46;;;;;;;17.30;11.40;;;;;;;6.57;78.52;97480.26;103810;1284;61099;-27
2022/03/31 02:49:15;;;;;;;15.40;9.80;;;;;;;6.35;79.21;97468.80;104253;1281;74624;-27
2022/03/31 02:51:44;;;;;;;14.80;9.60;;;;;;;6.10;80.07;97465.83;104182;1281;76107;-25
2022/03/31 02:57:02;;;;;;;15.90;10.00;;;;;;;6.37;80.06;97457.19;104587;1281;61135;-26
2022/03/31 02:59:33;;;;;;;14.50;9.20;;;;;;;6.67;78.88;97449.90;104403;1278;61032;-26
2022/03/31 03:02:05;;;;;;;12.30;6.60;;;;;;;6.57;78.63;97446.66;104354;1278;74796;-26
2022/03/31 03:04:42;;;;;;;13.10;8.20;;;;;;;6.33;79.11;97441.00;104524;1277;74268;-28
2022/03/31 03:07:11;;;;;;;12.70;8.70;;;;;;;6.10;79.92;97433.92;104397;1278;74423;-28
2022/03/31 03:09:42;;;;;;;11.80;7.30;;;;;;;6.15;80.42;97432.44;104332;1279;62486;-27
2022/03/31 03:12:31;;;;;;;17.30;9.10;;;;;;;6.76;78.78;97428.78;104394;1278;62316;-27
2022/03/31 03:15:02;;;;;;;17.50;10.50;;;;;;;6.85;78.11;97423.78;104174;1280;74717;-27
2022/03/31 03:17:32;;;;;;;13.80;8.60;;;;;;;6.66;78.35;97420.66;104286;1280;74724;-28
2022/03/31 03:20:02;;;;;;;13.80;9.70;;;;;;;6.41;78.94;97414.98;104665;1280;74199;-28
2022/03/31 03:22:32;;;;;;;13.80;9.10;;;;;;;6.14;79.66;97414.92;104551;1281;61172;-27
2022/03/31 03:25:01;;;;;;;12.70;7.30;;;;;;;5.97;80.36;97414.40;104464;1279;61166;-28
2022/03/31 03:27:31;;;;;;;12.70;7.60;;;;;;;6.49;79.95;97419.27;104475;1280;73796;-28
2022/03/31 03:30:00;;;;;;;14.80;8.70;;;;;;;7.04;78.02;97411.88;104483;1281;76000;-26
2022/03/31 03:32:30;;;;;;;14.50;8.50;;;;;;;7.03;77.51;97404.36;104253;1280;74226;-26
2022/03/31 03:34:59;;;;;;;13.10;7.60;;;;;;;6.82;77.88;97406.31;104270;1281;61592;-25
2022/03/31 03:37:30;;;;;;;16.80;9.30;;;;;;;6.53;78.42;97399.28;104346;1281;61808;-25
2022/03/31 03:40:02;;;;;;;14.60;8.10;;;;;;;6.25;79.24;97392.98;104244;1281;74505;-26
2022/03/31 03:42:32;;;;;;;12.60;8.10;;;;;;;6.27;79.98;97396.11;104347;1281;76012;-26
2022/03/31 03:45:02;;;;;;;12.30;8.00;;;;;;;6.75;78.70;97396.73;104223;1281;74251;-25
2022/03/31 03:47:32;;;;;;;12.20;8.80;;;;;;;6.88;77.90;97392.43;104220;1281;62202;-25
2022/03/31 03:50:01;;;;;;;13.90;8.70;;;;;;;6.71;78.17;97389.16;104325;1278;62060;-26
2022/03/31 03:52:31;;;;;;;9.80;6.50;;;;;;;6.46;78.67;97394.73;104278;1280;74871;-25
2022/03/31 03:55:00;;;;;;;15.00;9.50;;;;;;;6.21;79.25;97384.77;104348;1281;76061;-26
2022/03/31 03:57:30;;;;;;;12.40;7.00;;;;;;;6.08;80.23;97384.52;104190;1280;74385;-25
2022/03/31 03:59:59;;;;;;;11.20;7.20;;;;;;;6.64;79.46;97387.07;104302;1279;62063;-26
2022/03/31 04:02:29;;;;;;;10.10;7.10;;;;;;;6.98;77.93;97378.40;104386;1281;61059;-25
2022/03/31 04:04:58;;;;;;;15.20;8.10;;;;;;;6.87;77.59;97379.91;104606;1280;74887;-25
2022/03/31 04:07:28;;;;;;;13.00;8.20;;;;;;;6.64;78.01;97375.98;104478;1281;76003;-25
2022/03/31 04:09:57;;;;;;;12.50;7.70;;;;;;;6.42;78.54;97371.63;104373;1280;73425;-25
2022/03/31 04:12:26;;;;;;;9.40;5.90;;;;;;;6.22;79.20;97370.33;104239;1281;63998;-25
2022/03/31 04:14:56;;;;;;;8.40;5.80;;;;;;;6.59;79.22;97364.57;104249;1277;62027;-26
2022/03/31 04:17:27;;;;;;;12.90;8.20;;;;;;;7.01;77.77;97362.61;104234;1277;74829;-25
2022/03/31 04:19:57;;;;;;;11.50;8.60;;;;;;;6.96;77.41;97362.55;104356;1277;75986;-26
2022/03/31 04:22:27;;;;;;;12.30;8.80;;;;;;;6.71;77.77;97364.73;104315;1277;73606;-26
2022/03/31 04:24:56;;;;;;;14.70;9.20;;;;;;;6.43;78.60;97364.65;104368;1278;61107;-25
2022/03/31 04:27:25;;;;;;;10.60;6.60;;;;;;;6.20;79.49;97358.77;104538;1278;61051;-25
2022/03/31 04:29:54;;;;;;;9.40;6.30;;;;;;;6.54;79.46;97355.05;104588;1278;72736;-27
2022/03/31 04:32:24;;;;;;;12.00;7.60;;;;;;;6.92;77.87;97358.27;104493;1277;75976;-28
2022/03/31 04:34:53;;;;;;;16.00;9.00;;;;;;;6.90;77.62;97357.73;104415;1278;72387;-28
2022/03/31 04:37:23;;;;;;;19.00;9.80;;;;;;;6.68;78.04;97358.09;104391;1277;61032;-27
2022/03/31 04:39:52;;;;;;;15.20;9.20;;;;;;;6.40;78.64;97354.61;104681;1277;61152;-25
2022/03/31 04:42:21;;;;;;;10.00;5.50;;;;;;;6.17;79.58;97354.77;104616;1281;74778;-25
2022/03/31 04:44:51;;;;;;;8.20;5.80;;;;;;;6.55;79.35;97357.85;104623;1278;74028;-25
2022/03/31 04:47:21;;;;;;;8.70;6.70;;;;;;;6.97;77.56;97356.45;104659;1277;74265;-25
2022/03/31 04:49:50;;;;;;;11.50;7.50;;;;;;;6.93;77.26;97358.56;104666;1277;61136;-25
2022/03/31 04:52:21;;;;;;;13.20;7.70;;;;;;;6.73;77.83;97360.88;104655;1278;61136;-25
2022/03/31 04:54:50;;;;;;;10.80;6.60;;;;;;;6.47;78.72;97359.34;104603;1281;74735;-25
2022/03/31 04:57:21;;;;;;;14.10;6.30;;;;;;;6.20;79.62;97357.94;104629;1277;75133;-25
2022/03/31 04:59:51;;;;;;;12.40;8.00;;;;;;;6.35;79.79;97354.66;104498;1278;73302;-25
2022/03/31 05:02:20;;;;;;;11.20;7.20;;;;;;;6.77;78.52;97357.27;104338;1277;61180;-25
2022/03/31 05:04:50;;;;;;;13.30;8.90;;;;;;;6.79;77.88;97353.05;104349;1277;61029;-25
2022/03/31 05:07:19;;;;;;;14.60;8.50;;;;;;;6.61;78.19;97351.98;104610;1277;74724;-27
2022/03/31 05:09:49;;;;;;;13.30;8.10;;;;;;;6.39;78.92;97353.47;104379;1277;74791;-28
2022/03/31 05:12:18;;;;;;;16.80;8.40;;;;;;;6.24;79.87;97357.20;104372;1277;74166;-28
2022/03/31 05:14:47;;;;;;;13.80;7.70;;;;;;;6.65;79.16;97351.45;104279;1278;61134;-27
2022/03/31 05:17:17;;;;;;;10.20;6.70;;;;;;;6.93;77.84;97351.94;104273;1279;61089;-28
2022/03/31 05:19:46;;;;;;;9.70;5.60;;;;;;;6.86;77.65;97358.32;104358;1278;72758;-28
2022/03/31 05:22:15;;;;;;;6.30;4.60;;;;;;;6.61;78.05;97359.02;104293;1278;76116;-29
2022/03/31 05:24:45;;;;;;;6.70;4.60;;;;;;;6.35;78.90;97356.94;104284;1277;74408;-28
2022/03/31 05:27:14;;;;;;;6.90;4.40;;;;;;;6.37;79.76;97357.09;104353;1277;62839;-26
2022/03/31 05:29:43;;;;;;;9.20;5.30;;;;;;;6.80;78.41;97346.65;104224;1281;61134;-28
2022/03/31 05:32:13;;;;;;;11.00;6.50;;;;;;;6.85;77.74;97341.39;104375;1277;73801;-26
2022/03/31 05:34:42;;;;;;;9.90;6.60;;;;;;;6.64;78.04;97338.75;104360;1277;75177;-27
2022/03/31 05:37:11;;;;;;;11.70;8.70;;;;;;;6.42;78.60;97340.14;104231;1278;74350;-26
2022/03/31 05:39:40;;;;;;;13.70;9.40;;;;;;;6.28;79.62;97342.20;104383;1277;63435;-26
2022/03/31 05:42:10;;;;;;;9.50;6.30;;;;;;;6.77;79.00;97345.50;104279;1281;61239;-26
2022/03/31 05:44:39;;;;;;;8.80;6.40;;;;;;;7.21;77.33;97345.52;104374;1277;73679;-27
2022/03/31 05:47:08;;;;;;;8.40;6.00;;;;;;;7.24;76.91;97350.80;104294;1278;76009;-27
2022/03/31 05:49:38;;;;;;;8.20;5.90;;;;;;;7.10;77.27;97359.73;104500;1277;74305;-26
2022/03/31 05:52:07;;;;;;;9.50;6.80;;;;;;;6.88;77.74;97359.13;104275;1278;61156;-28
2022/03/31 05:54:37;;;;;;;7.30;4.20;;;;;;;6.71;78.62;97358.61;104272;1278;61921;-27
2022/03/31 05:57:06;;;;;;;6.10;4.60;;;;;;;7.09;78.21;97352.73;104380;1279;74666;-26
2022/03/31 05:59:35;;;;;;;7.90;5.00;;;;;;;7.51;76.59;97355.30;104518;1278;76172;-25
2022/03/31 06:02:05;;;;;;;9.90;6.00;;;;;;;7.54;76.11;97354.38;104551;1277;74699;-26
2022/03/31 06:04:35;;;;;;;8.90;6.10;;;;;;;7.38;76.72;97351.04;104326;1277;61931;-25
2022/03/31 06:07:05;;;;;;;9.80;5.90;;;;;;;7.17;77.16;97348.39;104391;1277;61872;-25
2022/03/31 06:09:35;;;;;;;7.60;4.70;;;;;;;6.95;78.23;97337.33;104222;1277;73122;-25
2022/03/31 06:12:05;;;;;;;11.60;6.70;;;;;;;7.23;77.79;97335.08;104267;1277;74702;-25
2022/03/31 06:14:34;;;;;;;18.10;8.50;;;;;;;7.54;76.62;97332.98;104243;1278;74424;-27
2022/03/31 06:17:04;;;;;;;10.00;6.90;;;;;;;7.53;76.23;97330.06;104296;1277;61081;-25
2022/03/31 06:19:35;;;;;;;8.60;5.10;;;;;;;7.33;76.71;97324.63;104226;1278;62536;-27
2022/03/31 06:22:13;;;;;;;8.50;5.10;;;;;;;7.01;78.16;97324.83;104310;1277;74679;-26
2022/03/31 06:24:42;;;;;;;10.70;6.20;;;;;;;7.16;78.35;97332.02;104399;1278;75988;-26
2022/03/31 06:27:13;;;;;;;9.80;6.10;;;;;;;7.70;76.92;97329.39;104344;1278;73578;-26
2022/03/31 06:29:45;;;;;;;7.40;4.40;;;;;;;7.87;76.19;97321.51;104624;1281;64030;-26
2022/03/31 06:32:15;;;;;;;9.80;5.80;;;;;;;7.78;75.82;97329.66;104560;1278;61954;-28
2022/03/31 06:34:44;;;;;;;10.60;5.80;;;;;;;7.59;76.60;97325.74;104346;1278;75560;-27
2022/03/31 06:37:15;;;;;;;8.90;4.90;;;;;;;7.40;77.02;97334.77;104292;1281;75857;-27
2022/03/31 06:39:44;;;;;;;8.00;5.20;;;;;;;7.43;77.16;97339.55;104363;1277;74285;-27
2022/03/31 06:42:14;;;;;;;6.50;5.00;;;;;;;7.80;76.00;97338.39;104285;1278;62045;-27
2022/03/31 06:44:43;;;;;;;8.20;5.40;;;;;;;7.97;75.52;97334.05;104333;1277;62313;-27
2022/03/31 06:47:12;;;;;;;8.20;4.90;;;;;;;7.91;75.39;97329.77;104374;1277;74507;-27
2022/03/31 06:49:42;;;;;;;9.70;6.30;;;;;;;7.70;75.74;97331.92;104315;1278;76025;-28
2022/03/31 06:52:11;;;;;;;10.40;5.40;;;;;;;7.47;76.87;97333.83;104348;1277;73230;-27
2022/03/31 06:54:41;;;;;;;12.00;6.10;;;;;;;7.81;76.24;97329.81;104327;1277;61034;-27
2022/03/31 06:57:09;;;;;;;8.10;5.80;;;;;;;8.30;75.59;97329.25;104298;1278;61090;-27
2022/03/31 06:59:40;;;;;;;10.70;6.40;;;;;;;8.42;74.98;97327.30;104264;1281;75899;-27
2022/03/31 07:02:09;;;;;;;15.20;9.10;;;;;;;8.32;74.31;97326.14;104336;1277;75992;-25
2022/03/31 07:04:38;;;;;;;10.90;7.90;;;;;;;8.13;75.28;97325.71;104362;1275;72472;-25
2022/03/31 07:07:08;;;;;;;8.20;5.60;;;;;;;8.14;75.37;97330.44;104400;1277;63782;-26
2022/03/31 07:09:43;;;;;;;11.10;6.80;;;;;;;8.85;74.87;97327.75;104567;1277;61132;-25
2022/03/31 07:12:13;;;;;;;16.90;8.40;;;;;;;9.51;72.91;97332.14;104672;1277;75525;-26
2022/03/31 07:14:44;;;;;;;9.60;5.70;;;;;;;9.75;72.17;97335.68;104611;1278;75997;-25
2022/03/31 07:17:13;;;;;;;14.30;7.80;;;;;;;9.83;71.81;97338.67;105128;1271;73394;-25
2022/03/31 07:19:44;;;;;;;11.10;7.00;;;;;;;9.75;71.03;97336.08;105324;1270;62321;-25
2022/03/31 07:22:14;;;;;;;11.10;8.00;;;;;;;9.64;71.41;97340.85;105067;1271;61949;-27
2022/03/31 07:24:44;;;;;;;13.30;8.40;;;;;;;9.49;71.14;97339.95;104833;1271;75505;-27
2022/03/31 07:27:14;;;;;;;7.60;4.50;;;;;;;9.36;71.44;97342.85;104998;1271;75877;-28
2022/03/31 07:29:44;;;;;;;9.40;6.60;;;;;;;9.62;70.15;97347.47;104922;1271;74435;-27
2022/03/31 07:32:13;;;;;;;14.70;7.40;;;;;;;9.81;68.86;97352.98;104951;1271;62076;-26
2022/03/31 07:34:45;;;;;;;12.80;6.60;;;;;;;10.09;69.23;97359.73;104976;1271;61350;-26
2022/03/31 07:37:15;;;;;;;13.50;8.10;;;;;;;10.09;68.79;97358.14;104972;1271;76388;-26
2022/03/31 07:39:48;;;;;;;13.80;7.50;;;;;;;9.94;68.79;97353.80;104915;1271;75858;-27
2022/03/31 07:42:18;;;;;;;11.90;6.80;;;;;;;9.76;69.00;97352.05;104886;1271;74413;-26
2022/03/31 07:44:47;;;;;;;13.10;8.10;;;;;;;9.59;69.31;97351.34;105175;1271;62089;-26
2022/03/31 07:47:17;;;;;;;7.00;5.00;;;;;;;9.43;70.08;97349.88;105215;1270;61054;-26
2022/03/31 07:49:49;;;;;;;13.10;7.80;;;;;;;9.65;70.31;97347.02;105067;1271;75755;-26
2022/03/31 07:52:21;;;;;;;10.10;7.30;;;;;;;10.18;68.83;97350.59;105189;1271;73844;-26
2022/03/31 07:55:07;;;;;;;10.40;4.80;;;;;;;10.13;67.49;97350.63;104813;1271;73868;-26
2022/03/31 07:57:38;;;;;;;9.90;6.30;;;;;;;9.90;68.07;97353.66;104635;1271;62082;-27
2022/03/31 08:00:11;;;;;;;13.10;7.40;;;;;;;9.68;69.79;97352.35;104920;1271;61374;-27
2022/03/31 08:02:41;;;;;;;11.60;7.70;;;;;;;9.75;69.36;97348.64;104770;1271;75651;-26
2022/03/31 08:05:12;;;;;;;10.80;7.20;;;;;;;9.69;69.41;97349.98;104662;1271;76037;-26
2022/03/31 08:07:42;;;;;;;8.60;5.70;;;;;;;9.64;70.13;97355.70;104884;1270;73433;-27
2022/03/31 08:10:11;;;;;;;10.90;6.10;;;;;;;9.65;70.14;97356.44;104952;1271;62455;-27
2022/03/31 08:12:41;;;;;;;12.60;5.70;;;;;;;10.03;69.15;97358.75;105127;1271;61153;-27
2022/03/31 08:15:10;;;;;;;11.00;7.70;;;;;;;10.36;68.29;97361.38;104964;1271;75606;-27
2022/03/31 08:17:41;;;;;;;13.70;8.40;;;;;;;10.40;68.07;97364.92;104952;1271;76014;-27
2022/03/31 08:20:13;;;;;;;11.90;7.80;;;;;;;10.32;68.61;97367.98;105047;1271;73429;-27
2022/03/31 08:22:43;;;;;;;9.20;5.90;;;;;;;10.28;69.00;97366.22;105127;1271;61216;-27
2022/03/31 08:25:15;;;;;;;14.10;8.30;;;;;;;10.17;68.91;97365.90;105046;1271;62079;-27
2022/03/31 08:27:45;;;;;;;8.80;5.40;;;;;;;10.10;68.77;97368.77;104937;1271;75497;-28
2022/03/31 08:30:18;;;;;;;11.30;6.30;;;;;;;10.37;68.45;97370.12;104906;1271;75704;-27
2022/03/31 08:32:47;;;;;;;8.90;6.20;;;;;;;10.90;67.26;97369.62;104762;1271;73133;-27
2022/03/31 08:35:17;;;;;;;12.90;8.40;;;;;;;11.11;65.81;97372.88;104911;1271;61080;-27
2022/03/31 08:37:47;;;;;;;12.30;7.70;;;;;;;11.05;66.15;97377.14;104920;1271;62059;-27
2022/03/31 08:40:18;;;;;;;13.90;7.10;;;;;;;11.02;65.77;97381.17;104916;1271;75895;-25
2022/03/31 08:42:47;;;;;;;12.30;8.70;;;;;;;11.08;66.09;97384.55;105005;1269;74743;-25
2022/03/31 08:45:19;;;;;;;11.20;8.00;;;;;;;11.20;66.44;97380.60;104937;1270;74415;-25
2022/03/31 08:47:51;;;;;;;12.90;8.50;;;;;;;11.38;66.11;97378.98;104742;1271;61279;-25
2022/03/31 08:50:23;;;;;;;11.60;8.30;;;;;;;11.65;66.04;97371.17;105149;1271;61775;-25
2022/03/31 08:52:56;;;;;;;12.10;8.60;;;;;;;11.80;63.76;97368.39;105320;1270;75890;-25
2022/03/31 08:55:27;;;;;;;13.20;7.80;;;;;;;12.13;65.56;97363.82;105137;1271;74707;-26
2022/03/31 08:57:58;;;;;;;13.30;8.90;;;;;;;12.36;62.56;97365.77;104976;1271;73286;-26
2022/03/31 09:00:27;;;;;;;11.50;8.40;;;;;;;12.40;62.07;97364.81;104942;1271;61967;-25
2022/03/31 09:03:05;;;;;;;13.60;8.60;;;;;;;12.50;61.32;97365.73;105047;1271;62032;-25
2022/03/31 09:05:46;;;;;;;12.80;8.10;;;;;;;12.87;62.08;97368.08;105048;1271;75392;-25
2022/03/31 09:08:16;;;;;;;16.80;8.50;;;;;;;13.32;60.69;97367.98;104782;1271;73995;-25
2022/03/31 09:10:50;;;;;;;18.20;9.30;;;;;;;13.45;59.43;97370.95;104825;1271;74569;-26
2022/03/31 09:13:23;;;;;;;12.40;7.90;;;;;;;13.27;58.39;97367.85;104955;1271;61910;-25
2022/03/31 09:16:01;;;;;;;10.20;7.80;;;;;;;13.27;58.06;97371.67;104805;1271;61136;-25
2022/03/31 09:18:32;;;;;;;11.50;8.20;;;;;;;13.18;57.57;97369.80;104749;1270;73551;-26
2022/03/31 09:21:05;;;;;;;8.90;7.00;;;;;;;13.43;57.89;97373.64;104691;1271;74198;-25
2022/03/31 09:23:46;;;;;;;14.00;6.40;;;;;;;13.91;56.95;97370.66;104774;1272;74409;-26
2022/03/31 09:26:17;;;;;;;11.00;7.10;;;;;;;14.16;54.68;97356.69;104910;1271;62220;-26
2022/03/31 09:28:47;;;;;;;12.30;6.70;;;;;;;14.07;56.78;97355.70;105098;1271;61285;-25
2022/03/31 09:31:24;;;;;;;9.70;6.60;;;;;;;14.07;55.72;97359.02;105084;1271;74596;-26
2022/03/31 09:33:55;;;;;;;10.40;7.30;;;;;;;14.20;56.11;97352.23;104883;1271;76295;-26
2022/03/31 09:36:26;;;;;;;8.30;6.50;;;;;;;13.73;56.85;97345.11;104937;1271;74387;-26
2022/03/31 09:39:00;;;;;;;11.40;7.30;;;;;;;13.95;55.71;97344.41;104928;1271;61172;-27
2022/03/31 09:41:32;;;;;;;8.40;6.00;;;;;;;14.43;54.17;97343.63;104747;1271;61952;-27
2022/03/31 09:44:07;;;;;;;11.30;6.90;;;;;;;14.78;52.81;97346.61;104755;1271;75694;-26
2022/03/31 09:46:38;;;;;;;11.60;7.30;;;;;;;14.29;54.32;97353.36;104843;1271;75159;-26
2022/03/31 09:49:13;;;;;;;10.50;6.20;;;;;;;14.31;53.76;97344.85;105009;1271;74455;-26
2022/03/31 09:51:48;;;;;;;10.60;6.80;;;;;;;14.09;53.29;97331.48;104898;1271;61168;-25
2022/03/31 09:54:19;;;;;;;7.60;5.60;;;;;;;13.97;53.14;97334.20;105230;1270;61109;-25
2022/03/31 09:56:49;;;;;;;13.30;6.50;;;;;;;13.97;52.96;97339.83;104811;1272;75514;-25
2022/03/31 09:59:20;;;;;;;12.40;8.00;;;;;;;13.94;54.43;97346.38;104819;1272;76009;-25
2022/03/31 10:01:54;;;;;;;14.00;8.60;;;;;;;13.52;56.40;97343.68;104663;1272;73288;-25
2022/03/31 10:04:23;;;;;;;10.20;7.70;;;;;;;13.23;57.83;97338.53;104943;1271;61153;-25
2022/03/31 10:06:56;;;;;;;;;;;;;;;13.05;58.66;97344.67;104931;1271;61041;-25
2022/03/31 10:09:25;;;;;;;10.50;7.50;;;;;;;13.00;58.33;97340.96;105388;1271;75541;-27
2022/03/31 10:11:58;;;;;;;13.40;6.70;;;;;;;12.65;58.54;97344.43;105121;1271;75998;-26
2022/03/31 10:14:54;;;;;;;10.70;7.10;;;;;;;12.61;59.74;97344.21;104956;1271;74537;-26
2022/03/31 10:17:25;;;;;;;10.00;6.50;;;;;;;12.64;59.76;97341.08;105148;1271;61173;-26
2022/03/31 10:20:11;;;;;;;10.30;6.20;;;;;;;12.83;58.34;97341.27;104869;1271;61087;-26
2022/03/31 10:25:48;;;;;;;10.50;7.20;;;;;;;12.60;59.07;97352.63;105025;1271;74986;-26
2022/03/31 10:28:20;;;;;;;12.70;6.70;;;;;;;12.40;58.98;97345.92;105148;1270;73193;-25
2022/03/31 10:30:58;;;;;;;9.20;5.80;;;;;;;12.56;57.85;97347.42;105018;1272;61134;-25
2022/03/31 10:33:27;;;;;;;8.60;6.00;;;;;;;12.69;57.58;97347.00;105049;1271;62043;-25
2022/03/31 10:36:09;;;;;;;11.90;6.30;;;;;;;12.80;58.32;97347.95;104911;1271;74305;-25
2022/03/31 10:38:51;;;;;;;7.50;5.70;;;;;;;12.88;58.64;97351.14;104715;1271;74857;-25
2022/03/31 10:41:35;;;;;;;9.10;6.40;;;;;;;12.93;57.86;97349.20;104681;1271;74155;-26
2022/03/31 10:44:11;;;;;;;7.40;5.40;;;;;;;13.05;56.80;97350.04;104828;1271;61078;-25
2022/03/31 10:46:44;;;;;;;7.20;5.00;;;;;;;13.08;55.97;97343.72;104759;1272;62030;-25
2022/03/31 10:49:19;;;;;;;7.80;5.20;;;;;;;13.03;55.87;97348.92;104869;1271;75092;-25
2022/03/31 10:51:49;;;;;;;8.70;5.50;;;;;;;13.02;55.65;97343.96;104893;1271;76004;-25
2022/03/31 10:54:24;;;;;;;6.50;4.20;;;;;;;12.93;55.34;97345.83;104994;1271;76128;-25
2022/03/31 10:57:03;;;;;;;14.60;8.00;;;;;;;12.81;58.40;97356.89;105136;1271;61789;-24
2022/03/31 10:59:34;;;;;;;10.10;6.60;;;;;;;12.48;60.98;97365.63;105157;1272;61806;-27
2022/03/31 11:02:15;;;;;;;12.60;8.00;;;;;;;12.53;61.43;97369.89;105101;1271;72847;-26
2022/03/31 11:04:51;;;;;;;13.60;7.20;;;;;;;12.36;60.50;97350.08;105204;1271;75975;-26
2022/03/31 11:07:25;;;;;;;6.60;5.30;;;;;;;12.49;60.89;97347.17;105120;1272;73376;-30
2022/03/31 11:10:04;;;;;;;10.50;7.00;;;;;;;12.49;60.06;97348.87;105156;1271;61120;-26
2022/03/31 11:12:35;;;;;;;9.30;6.30;;;;;;;12.55;60.00;97359.52;105167;1272;62155;-24
2022/03/31 11:15:07;;;;;;;10.70;6.40;;;;;;;12.45;59.81;97355.46;105113;1271;75535;-29
2022/03/31 11:17:39;;;;;;;10.30;6.30;;;;;;;12.61;60.42;97354.29;105102;1271;75935;-29
2022/03/31 11:20:22;;;;;;;8.00;4.90;;;;;;;12.72;58.99;97364.80;105059;1271;76087;-29
2022/03/31 11:22:54;;;;;;;10.70;5.30;;;;;;;12.71;59.50;97369.17;105102;1271;61942;-28
2022/03/31 11:25:26;;;;;;;12.10;6.90;;;;;;;12.65;59.50;97369.04;105163;1271;61023;-27
2022/03/31 11:27:58;;;;;;;7.20;5.70;;;;;;;12.61;60.36;97366.98;105414;1270;74486;-28
2022/03/31 11:30:30;;;;;;;9.50;5.40;;;;;;;12.49;60.24;97371.38;105029;1271;75726;-27
2022/03/31 11:33:01;;;;;;;9.00;5.60;;;;;;;12.53;59.39;97373.90;105105;1271;74214;-29
2022/03/31 11:35:30;;;;;;;10.00;5.40;;;;;;;12.61;59.69;97376.94;105144;1271;61076;-27
2022/03/31 11:38:02;;;;;;;9.10;5.20;;;;;;;12.61;58.99;97376.79;105165;1271;61148;-27
2022/03/31 11:40:38;;;;;;;7.90;4.60;;;;;;;12.64;58.72;97376.63;105137;1272;74073;-29
2022/03/31 11:43:10;;;;;;;7.80;4.30;;;;;;;12.72;59.02;97380.36;105062;1272;75959;-29
2022/03/31 11:45:48;;;;;;;8.60;4.40;;;;;;;12.55;58.96;97374.62;105048;1272;74167;-28
2022/03/31 11:48:36;;;;;;;9.80;4.10;;;;;;;12.43;58.68;97374.31;105175;1272;61719;-29